Time;durP1;ratioP1;P1;durP2;ratioP2;P2;SDS_P1;SDS_P2;PMS_P1;PMS_P2;Temp;Humidity;BMP_temperature;BMP_pressure;BME280_temperature;BME280_humidity;BME280_pressure;Samples;Min_cycle;Max_cycle;Signal;HPM_P1;HPM_P2
2020/12/26 00:01:41;;;;;;;1.25;0.60;;;21.00;43.70;;;;;;6251016;28;20349;-67
2020/12/26 00:04:41;;;;;;;1.75;0.60;;;21.00;43.50;;;;;;6244072;28;20386;-67
2020/12/26 00:07:42;;;;;;;0.75;0.40;;;21.00;43.40;;;;;;6267875;28;20028;-67
2020/12/26 00:10:42;;;;;;;0.60;0.30;;;21.00;43.40;;;;;;6261145;28;20049;-68
2020/12/26 00:13:45;;;;;;;0.60;0.43;;;21.00;43.70;;;;;;6244069;28;20105;-68
2020/12/26 00:16:46;;;;;;;2.00;0.63;;;21.00;43.50;;;;;;6258630;28;20494;-67
2020/12/26 00:19:46;;;;;;;0.90;0.50;;;21.00;43.80;;;;;;6268881;28;20029;-67
2020/12/26 00:22:47;;;;;;;1.20;0.55;;;21.00;43.60;;;;;;6261600;28;20025;-69
2020/12/26 00:25:47;;;;;;;0.90;0.50;;;21.00;43.40;;;;;;6249330;28;20025;-68
2020/12/26 00:28:48;;;;;;;0.95;0.60;;;21.00;43.40;;;;;;6262267;28;20026;-68
2020/12/26 00:31:48;;;;;;;0.40;0.30;;;20.90;43.20;;;;;;6242774;28;20029;-68
2020/12/26 00:34:49;;;;;;;0.98;0.60;;;20.90;43.80;;;;;;6243814;28;20026;-67
2020/12/26 00:37:49;;;;;;;1.30;0.52;;;20.90;43.40;;;;;;6262933;28;20115;-68
2020/12/26 00:40:49;;;;;;;0.77;0.32;;;20.90;43.50;;;;;;6268004;28;20464;-68
2020/12/26 00:43:50;;;;;;;0.57;0.57;;;20.90;43.60;;;;;;6267678;28;20043;-68
2020/12/26 00:46:50;;;;;;;1.05;0.55;;;20.90;43.50;;;;;;6256861;28;20049;-68
2020/12/26 00:49:51;;;;;;;0.60;0.40;;;20.90;43.50;;;;;;6243254;28;20026;-67
2020/12/26 00:52:51;;;;;;;1.33;0.50;;;20.90;43.70;;;;;;6242636;28;20037;-68
2020/12/26 00:55:52;;;;;;;0.85;0.40;;;20.90;43.90;;;;;;6243728;28;20379;-69
2020/12/26 00:58:52;;;;;;;1.27;0.50;;;20.90;43.30;;;;;;6267499;28;20496;-68
2020/12/26 01:01:56;;;;;;;0.65;0.40;;;20.90;43.10;;;;;;6268055;28;20120;-68
2020/12/26 01:04:56;;;;;;;1.02;0.45;;;20.90;43.40;;;;;;6267361;28;20021;-68
2020/12/26 01:07:57;;;;;;;0.50;0.50;;;20.90;43.50;;;;;;6251278;28;20091;-68
2020/12/26 01:10:57;;;;;;;0.68;0.40;;;20.80;43.40;;;;;;6241592;28;20036;-68
2020/12/26 01:13:57;;;;;;;1.52;0.47;;;20.80;43.50;;;;;;6242906;28;20108;-67
2020/12/26 01:16:58;;;;;;;0.68;0.50;;;20.80;43.40;;;;;;6249254;28;20060;-68
2020/12/26 01:19:58;;;;;;;0.50;0.40;;;20.80;43.80;;;;;;6265914;28;20484;-70
2020/12/26 01:22:59;;;;;;;0.60;0.40;;;20.80;43.60;;;;;;6268592;28;20040;-69
2020/12/26 01:25:59;;;;;;;1.02;0.40;;;20.80;43.60;;;;;;6240796;28;20057;-68
2020/12/26 01:29:00;;;;;;;0.45;0.40;;;20.80;43.30;;;;;;6257895;28;20048;-68
2020/12/26 01:32:01;;;;;;;0.43;0.40;;;20.80;43.40;;;;;;6242801;28;20352;-68
2020/12/26 01:35:02;;;;;;;0.90;0.50;;;20.80;43.40;;;;;;6241444;28;20044;-67
2020/12/26 01:38:03;;;;;;;0.70;0.40;;;20.80;43.50;;;;;;6255196;28;20510;-68
2020/12/26 01:41:03;;;;;;;1.05;0.50;;;20.80;43.60;;;;;;6272033;28;20025;-69
2020/12/26 01:44:04;;;;;;;0.30;0.30;;;20.80;44.00;;;;;;6251384;28;20055;-67
2020/12/26 01:47:05;;;;;;;0.40;0.40;;;20.80;43.70;;;;;;6250746;28;20581;-67
2020/12/26 01:50:06;;;;;;;0.47;0.43;;;20.80;43.40;;;;;;6271869;28;20032;-68
2020/12/26 01:53:09;;;;;;;1.10;0.40;;;20.80;43.60;;;;;;6260416;28;20037;-67
2020/12/26 01:56:10;;;;;;;0.40;0.30;;;20.80;43.90;;;;;;6246126;28;20029;-67
2020/12/26 01:59:10;;;;;;;0.77;0.40;;;20.80;43.70;;;;;;6265692;28;20620;-68
2020/12/26 02:02:11;;;;;;;0.80;0.50;;;20.80;43.90;;;;;;6270582;28;20067;-67
2020/12/26 02:05:11;;;;;;;1.10;0.70;;;20.80;43.70;;;;;;6256800;28;20025;-69
2020/12/26 02:08:12;;;;;;;0.93;0.50;;;20.70;43.40;;;;;;6257927;28;20021;-68
2020/12/26 02:11:13;;;;;;;0.88;0.45;;;20.80;43.70;;;;;;6271513;28;20041;-68
2020/12/26 02:14:14;;;;;;;0.93;0.47;;;20.70;43.80;;;;;;6271865;28;20036;-67
2020/12/26 02:17:15;;;;;;;0.63;0.40;;;20.70;43.90;;;;;;6271501;28;20498;-68
2020/12/26 02:20:15;;;;;;;1.58;0.50;;;20.70;43.50;;;;;;6244772;28;20018;-68
2020/12/26 02:23:16;;;;;;;0.75;0.32;;;20.70;43.50;;;;;;6254532;28;20035;-68
2020/12/26 02:26:26;;;;;;;0.47;0.40;;;20.70;43.20;;;;;;6271366;28;20273;-68
2020/12/26 02:29:27;;;;;;;0.40;0.30;;;20.70;43.50;;;;;;6265195;28;20029;-68
2020/12/26 02:32:27;;;;;;;0.85;0.57;;;20.70;43.30;;;;;;6270514;28;20044;-68
2020/12/26 02:35:28;;;;;;;0.73;0.57;;;20.70;43.50;;;;;;6271279;28;20029;-67
2020/12/26 02:38:28;;;;;;;0.63;0.40;;;20.70;43.30;;;;;;6262866;28;20022;-67
2020/12/26 02:41:29;;;;;;;0.88;0.47;;;20.70;43.30;;;;;;6250270;28;20301;-68
2020/12/26 02:44:29;;;;;;;0.70;0.30;;;20.70;43.60;;;;;;6262103;28;20034;-68
2020/12/26 02:47:30;;;;;;;1.15;0.50;;;20.70;43.40;;;;;;6251535;28;20035;-68
2020/12/26 02:50:30;;;;;;;1.00;0.50;;;20.70;43.60;;;;;;6268084;28;20052;-68
2020/12/26 02:53:31;;;;;;;1.20;0.47;;;20.70;43.60;;;;;;6263993;28;20078;-68
2020/12/26 02:56:32;;;;;;;0.50;0.28;;;20.70;43.60;;;;;;6244667;28;20124;-68
2020/12/26 02:59:32;;;;;;;1.52;0.40;;;20.70;43.60;;;;;;6245850;28;20041;-68
2020/12/26 03:02:32;;;;;;;0.30;0.20;;;20.70;43.70;;;;;;6246046;28;20021;-67
2020/12/26 03:05:33;;;;;;;0.98;0.30;;;20.60;43.60;;;;;;6245351;28;20298;-68
2020/12/26 03:08:33;;;;;;;0.73;0.40;;;20.70;43.90;;;;;;6247255;28;20049;-67
2020/12/26 03:11:34;;;;;;;1.17;0.75;;;20.60;43.50;;;;;;6270046;28;20033;-67
2020/12/26 03:14:34;;;;;;;0.30;0.30;;;20.60;43.70;;;;;;6269711;28;20446;-68
2020/12/26 03:17:35;;;;;;;1.67;0.50;;;20.60;43.60;;;;;;6269918;28;20029;-68
2020/12/26 03:20:36;;;;;;;1.20;0.60;;;20.60;43.40;;;;;;6253595;28;20026;-68
2020/12/26 03:23:36;;;;;;;0.75;0.40;;;20.60;43.50;;;;;;6245653;28;20041;-68
2020/12/26 03:26:37;;;;;;;1.30;0.40;;;20.60;43.20;;;;;;6269461;28;20018;-68
2020/12/26 03:29:37;;;;;;;0.47;0.30;;;20.60;43.50;;;;;;6265067;28;20549;-68
2020/12/26 03:32:38;;;;;;;0.77;0.40;;;20.60;43.40;;;;;;6266398;28;20025;-69
2020/12/26 03:35:38;;;;;;;0.70;0.32;;;20.60;43.60;;;;;;6258530;28;20116;-68
2020/12/26 03:38:39;;;;;;;0.88;0.35;;;20.60;43.30;;;;;;6268199;28;20025;-69
2020/12/26 03:41:39;;;;;;;0.40;0.30;;;20.60;43.30;;;;;;6246674;28;20473;-68
2020/12/26 03:44:40;;;;;;;2.17;0.43;;;20.60;43.60;;;;;;6255909;28;20480;-69
2020/12/26 03:47:40;;;;;;;0.90;0.40;;;20.60;43.60;;;;;;6245000;28;20558;-68
2020/12/26 03:50:41;;;;;;;0.30;0.30;;;20.60;43.80;;;;;;6250108;28;20040;-68
2020/12/26 03:53:41;;;;;;;0.45;0.40;;;20.60;43.60;;;;;;6248969;28;20026;-69
2020/12/26 03:56:43;;;;;;;0.25;0.20;;;20.60;43.50;;;;;;6249322;28;20033;-69
2020/12/26 03:59:43;;;;;;;0.60;0.40;;;20.60;43.60;;;;;;6248283;28;20021;-68
2020/12/26 04:02:43;;;;;;;0.60;0.30;;;20.60;43.60;;;;;;6245266;28;20026;-69
2020/12/26 04:05:44;;;;;;;0.98;0.60;;;20.60;43.50;;;;;;6244522;28;20049;-69
2020/12/26 04:08:44;;;;;;;0.43;0.30;;;20.60;43.50;;;;;;6242920;28;20392;-69
2020/12/26 04:11:46;;;;;;;0.40;0.30;;;20.60;44.00;;;;;;6244082;28;20432;-70
2020/12/26 04:14:46;;;;;;;0.50;0.50;;;20.50;43.60;;;;;;6245784;28;20025;-68
2020/12/26 04:17:47;;;;;;;0.40;0.40;;;20.50;43.50;;;;;;6268983;28;20055;-69
2020/12/26 04:20:49;;;;;;;0.55;0.32;;;20.50;43.50;;;;;;6258648;28;20045;-67
2020/12/26 04:23:50;;;;;;;0.50;0.30;;;20.50;43.40;;;;;;6244166;28;20289;-69
2020/12/26 04:26:51;;;;;;;0.75;0.40;;;20.50;43.60;;;;;;6241919;28;20447;-69
2020/12/26 04:29:51;;;;;;;0.57;0.40;;;20.50;43.60;;;;;;6257206;28;20055;-68
2020/12/26 04:32:52;;;;;;;0.43;0.30;;;20.50;43.50;;;;;;6243474;28;20396;-68
2020/12/26 04:35:52;;;;;;;0.20;0.20;;;20.50;43.80;;;;;;6243796;28;20029;-68
2020/12/26 04:38:53;;;;;;;0.98;0.35;;;20.50;43.70;;;;;;6243787;28;20021;-69
2020/12/26 04:41:54;;;;;;;0.30;0.30;;;20.50;43.80;;;;;;6274124;28;20021;-69
2020/12/26 04:44:54;;;;;;;0.20;0.20;;;20.50;43.60;;;;;;6268141;28;20059;-69
2020/12/26 04:48:00;;;;;;;0.80;0.40;;;20.50;43.50;;;;;;6261633;28;20025;-68
2020/12/26 04:51:02;;;;;;;;;;;20.50;43.70;;;;;;6261333;28;20036;-69
2020/12/26 04:54:13;;;;;;;0.50;0.30;;;20.50;43.60;;;;;;6261306;28;19909;-69
2020/12/26 04:57:14;;;;;;;0.30;0.30;;;20.50;43.60;;;;;;6251321;28;20400;-69
2020/12/26 05:00:15;;;;;;;0.30;0.30;;;20.50;43.70;;;;;;6243187;28;20068;-69
2020/12/26 05:03:17;;;;;;;0.55;0.40;;;20.50;43.70;;;;;;6267555;28;20533;-68
2020/12/26 05:06:19;;;;;;;0.95;0.30;;;20.50;43.50;;;;;;6267659;28;20021;-68
2020/12/26 05:09:21;;;;;;;0.57;0.40;;;20.50;43.80;;;;;;6251388;28;20026;-69
2020/12/26 05:12:21;;;;;;;0.30;0.28;;;20.50;43.60;;;;;;6256491;28;20033;-68
2020/12/26 05:15:23;;;;;;;0.57;0.32;;;20.50;43.70;;;;;;6275158;28;20029;-68
2020/12/26 05:18:23;;;;;;;0.65;0.32;;;20.50;43.60;;;;;;6275738;28;20029;-69
2020/12/26 05:21:24;;;;;;;0.77;0.40;;;20.50;43.40;;;;;;6270903;28;20049;-68
2020/12/26 05:24:25;;;;;;;0.43;0.40;;;20.50;43.10;;;;;;6251327;28;20017;-69
2020/12/26 05:27:25;;;;;;;0.80;0.47;;;20.60;43.30;;;;;;6250722;28;20033;-69
2020/12/26 05:30:26;;;;;;;0.32;0.32;;;20.60;43.30;;;;;;6269576;28;20037;-68
2020/12/26 05:33:30;;;;;;;0.70;0.30;;;20.60;43.30;;;;;;6253877;28;20021;-69
2020/12/26 05:36:30;;;;;;;1.42;0.30;;;20.60;43.50;;;;;;6251294;28;20022;-68
2020/12/26 05:39:31;;;;;;;0.60;0.30;;;20.60;43.40;;;;;;6250539;28;20472;-68
2020/12/26 05:42:32;;;;;;;0.30;0.25;;;20.60;43.40;;;;;;6261691;28;20375;-69
2020/12/26 05:45:38;;;;;;;0.50;0.30;;;20.60;43.20;;;;;;6275630;28;20025;-68
2020/12/26 05:48:39;;;;;;;0.45;0.40;;;20.70;43.30;;;;;;6275309;28;20036;-69
2020/12/26 05:51:40;;;;;;;0.73;0.40;;;20.70;43.30;;;;;;6275215;28;20025;-69
2020/12/26 05:54:51;;;;;;;0.25;0.25;;;20.70;43.30;;;;;;6274053;28;20024;-68
2020/12/26 05:57:54;;;;;;;1.40;0.40;;;20.70;43.30;;;;;;6237632;28;20421;-69
2020/12/26 06:00:59;;;;;;;0.30;0.30;;;20.70;43.30;;;;;;6250655;28;20040;-68
2020/12/26 06:04:07;;;;;;;0.63;0.30;;;20.70;43.30;;;;;;6271226;28;20400;-68
2020/12/26 06:07:08;;;;;;;0.55;0.30;;;20.70;43.50;;;;;;6269919;28;20075;-69
2020/12/26 06:10:09;;;;;;;0.35;0.20;;;20.70;43.50;;;;;;6265557;28;20480;-69
2020/12/26 06:13:10;;;;;;;0.50;0.40;;;20.70;43.30;;;;;;6250633;28;20030;-68
2020/12/26 06:16:11;;;;;;;0.35;0.20;;;20.70;43.40;;;;;;6250093;28;20040;-69
2020/12/26 06:19:16;;;;;;;0.82;0.30;;;20.70;43.40;;;;;;6250108;28;20032;-67
2020/12/26 06:22:16;;;;;;;0.60;0.30;;;20.70;43.50;;;;;;6256917;28;20175;-68
2020/12/26 06:25:19;;;;;;;0.38;0.30;;;20.70;43.60;;;;;;6272496;28;20129;-69
2020/12/26 06:28:30;;;;;;;0.60;0.40;;;20.70;43.50;;;;;;6269584;28;20031;-68
2020/12/26 06:31:31;;;;;;;0.20;0.20;;;20.70;43.50;;;;;;6246755;28;20457;-69
2020/12/26 06:34:32;;;;;;;0.38;0.30;;;20.70;43.50;;;;;;6281410;28;20043;-69
2020/12/26 06:37:33;;;;;;;0.30;0.30;;;20.70;43.60;;;;;;6272460;28;20395;-68
2020/12/26 06:40:33;;;;;;;0.43;0.43;;;20.70;43.60;;;;;;6270926;28;20021;-69
2020/12/26 06:43:47;;;;;;;0.55;0.35;;;20.70;43.60;;;;;;6272149;28;20048;-69
2020/12/26 06:46:47;;;;;;;0.70;0.30;;;20.70;43.70;;;;;;6272045;28;20029;-68
2020/12/26 06:49:48;;;;;;;0.40;0.30;;;20.70;43.60;;;;;;6256434;28;20071;-69
2020/12/26 06:52:48;;;;;;;0.43;0.30;;;20.70;43.80;;;;;;6246764;28;20033;-68
2020/12/26 06:55:50;;;;;;;0.20;0.20;;;20.70;43.80;;;;;;6270897;28;20120;-69
2020/12/26 06:58:51;;;;;;;0.50;0.40;;;20.70;43.90;;;;;;6268774;28;20061;-68
2020/12/26 07:02:03;;;;;;;0.70;0.43;;;20.70;43.80;;;;;;6268933;28;20028;-68
2020/12/26 07:05:04;;;;;;;0.30;0.30;;;20.70;43.70;;;;;;6250317;28;20494;-68
2020/12/26 07:08:05;;;;;;;1.02;0.40;;;20.70;43.60;;;;;;6246432;28;20041;-69
2020/12/26 07:11:25;;;;;;;0.77;0.35;;;20.70;43.70;;;;;;6270161;28;20411;-69
2020/12/26 07:14:33;;;;;;;0.57;0.30;;;20.70;43.70;;;;;;6257111;28;20099;-68
2020/12/26 07:17:33;;;;;;;1.15;0.38;;;20.70;43.80;;;;;;6245249;28;20164;-69
2020/12/26 07:20:34;;;;;;;0.68;0.35;;;20.70;43.80;;;;;;6244211;28;20468;-69
2020/12/26 07:23:36;;;;;;;0.60;0.38;;;20.70;43.70;;;;;;6247122;28;20035;-69
2020/12/26 07:26:37;;;;;;;0.50;0.38;;;20.70;43.70;;;;;;6269845;28;20021;-69
2020/12/26 07:29:53;;;;;;;0.40;0.30;;;20.70;43.90;;;;;;6256520;28;20112;-69
2020/12/26 07:32:57;;;;;;;;;;;20.70;43.80;;;;;;6245567;28;20029;-69
2020/12/26 07:35:57;;;;;;;0.32;0.30;;;20.70;43.90;;;;;;6266357;28;19979;-68
2020/12/26 07:39:02;;;;;;;0.70;0.40;;;20.60;43.80;;;;;;6269012;28;20029;-69
2020/12/26 07:42:03;;;;;;;0.75;0.30;;;20.60;43.90;;;;;;6268231;28;20111;-68
2020/12/26 07:45:14;;;;;;;1.58;0.70;;;20.60;43.90;;;;;;6256345;28;20052;-69
2020/12/26 07:48:15;;;;;;;0.38;0.35;;;20.60;43.90;;;;;;6244687;28;20040;-68
2020/12/26 07:51:15;;;;;;;0.88;0.40;;;20.70;43.90;;;;;;6253611;28;20026;-69
2020/12/26 07:54:16;;;;;;;0.35;0.35;;;20.60;43.90;;;;;;6248909;28;20056;-69
2020/12/26 07:57:19;;;;;;;0.77;0.40;;;20.60;44.00;;;;;;6269201;28;20068;-67
2020/12/26 08:00:22;;;;;;;1.05;0.45;;;20.60;44.00;;;;;;6268800;28;20053;-69
2020/12/26 08:03:22;;;;;;;0.65;0.40;;;20.60;44.00;;;;;;6268721;28;20433;-69
2020/12/26 08:06:24;;;;;;;0.65;0.40;;;20.60;44.00;;;;;;6247114;28;20014;-68
2020/12/26 08:09:24;;;;;;;0.50;0.40;;;20.60;43.90;;;;;;6247809;28;20032;-69
2020/12/26 08:12:25;;;;;;;2.03;0.43;;;20.60;44.00;;;;;;6268577;28;20029;-68
2020/12/26 08:15:28;;;;;;;0.63;0.30;;;20.60;44.00;;;;;;6256788;28;20022;-69
2020/12/26 08:18:31;;;;;;;0.77;0.50;;;20.60;44.00;;;;;;6243859;28;20076;-68
2020/12/26 08:21:31;;;;;;;0.90;0.55;;;20.60;44.00;;;;;;6243112;28;20024;-68
2020/12/26 08:24:32;;;;;;;1.00;0.70;;;20.60;44.00;;;;;;6242497;28;20469;-69
2020/12/26 08:27:33;;;;;;;0.55;0.32;;;20.60;44.00;;;;;;6243943;28;20396;-69
2020/12/26 08:30:37;;;;;;;0.57;0.43;;;20.60;44.00;;;;;;6262851;28;20106;-68
2020/12/26 08:33:39;;;;;;;0.47;0.32;;;20.60;44.10;;;;;;6268287;28;20024;-69
2020/12/26 08:36:51;;;;;;;0.40;0.40;;;20.60;44.10;;;;;;6251872;28;20053;-69
2020/12/26 08:39:58;;;;;;;0.55;0.40;;;20.60;44.10;;;;;;6243598;28;20026;-69
2020/12/26 08:42:59;;;;;;;0.65;0.40;;;20.60;44.10;;;;;;6266542;28;20024;-69
2020/12/26 08:46:18;;;;;;;0.73;0.40;;;20.60;44.10;;;;;;6258894;28;20025;-68
2020/12/26 08:49:18;;;;;;;0.82;0.50;;;20.50;44.10;;;;;;6241392;28;20025;-69
2020/12/26 08:52:23;;;;;;;0.80;0.40;;;20.50;44.10;;;;;;6262498;28;20036;-69
2020/12/26 08:55:23;;;;;;;1.05;0.60;;;20.60;44.20;;;;;;6265297;28;20392;-69
2020/12/26 08:58:29;;;;;;;0.90;0.60;;;20.50;44.10;;;;;;6243474;28;20038;-68
2020/12/26 09:01:30;;;;;;;0.88;0.43;;;20.60;44.10;;;;;;6243012;28;20490;-69
2020/12/26 09:04:31;;;;;;;0.82;0.40;;;20.60;44.10;;;;;;6241855;28;20028;-68
2020/12/26 09:07:32;;;;;;;0.88;0.50;;;20.60;44.20;;;;;;6262557;28;20029;-68
2020/12/26 09:10:37;;;;;;;1.08;0.60;;;20.60;44.10;;;;;;6267475;28;20032;-68
2020/12/26 09:13:47;;;;;;;0.75;0.40;;;20.70;44.10;;;;;;6268026;28;20041;-69
2020/12/26 09:17:00;;;;;;;0.60;0.40;;;20.70;44.00;;;;;;6255577;28;20164;-69
2020/12/26 09:20:00;;;;;;;0.50;0.40;;;20.90;43.90;;;;;;6243149;28;20059;-70
2020/12/26 09:23:11;;;;;;;0.90;0.50;;;20.90;44.00;;;;;;6243113;28;20025;-69
2020/12/26 09:26:18;;;;;;;0.63;0.32;;;20.90;43.70;;;;;;6247870;28;20498;-69
2020/12/26 09:29:25;;;;;;;0.77;0.30;;;20.90;43.70;;;;;;6258389;28;20054;-69
2020/12/26 09:32:25;;;;;;;0.50;0.40;;;20.90;43.70;;;;;;6241012;28;20030;-69
2020/12/26 09:35:26;;;;;;;0.30;0.30;;;20.90;43.70;;;;;;6242729;28;20022;-69
2020/12/26 09:38:27;;;;;;;0.63;0.40;;;21.00;43.90;;;;;;6264637;28;20033;-69
2020/12/26 09:41:29;;;;;;;0.95;0.47;;;21.00;43.80;;;;;;6261517;28;20636;-69
2020/12/26 09:44:29;;;;;;;0.38;0.30;;;21.00;43.90;;;;;;6243007;28;20044;-69
2020/12/26 09:47:30;;;;;;;1.15;0.50;;;21.00;43.80;;;;;;6255256;28;20483;-69
2020/12/26 09:50:31;;;;;;;0.47;0.40;;;21.00;43.80;;;;;;6271563;28;20550;-70
2020/12/26 09:53:32;;;;;;;0.75;0.40;;;21.00;43.70;;;;;;6272225;28;20100;-69
2020/12/26 09:56:32;;;;;;;0.73;0.40;;;21.10;43.80;;;;;;6269249;28;20033;-68
2020/12/26 09:59:32;;;;;;;1.55;0.50;;;21.10;43.70;;;;;;6245271;28;20392;-70
2020/12/26 10:02:34;;;;;;;0.40;0.30;;;21.10;43.90;;;;;;6259428;28;20472;-69
2020/12/26 10:05:34;;;;;;;0.40;0.40;;;21.10;43.90;;;;;;6266298;28;20104;-69
2020/12/26 10:08:34;;;;;;;0.45;0.40;;;21.10;43.80;;;;;;6246294;28;20447;-69
2020/12/26 10:11:35;;;;;;;0.95;0.50;;;21.10;43.80;;;;;;6249064;28;20045;-70
2020/12/26 10:14:35;;;;;;;0.50;0.43;;;21.20;43.90;;;;;;6271525;28;20036;-69
2020/12/26 10:17:36;;;;;;;1.02;0.32;;;21.10;43.80;;;;;;6271988;28;20025;-69
2020/12/26 10:20:37;;;;;;;1.75;0.55;;;21.20;44.10;;;;;;6270275;28;20029;-69
2020/12/26 10:23:38;;;;;;;0.85;0.50;;;21.20;44.00;;;;;;6270826;28;20036;-69
2020/12/26 10:26:41;;;;;;;0.50;0.40;;;21.20;44.00;;;;;;6270082;28;20395;-69
2020/12/26 10:29:41;;;;;;;0.60;0.50;;;21.20;44.10;;;;;;6258119;28;20028;-69
2020/12/26 10:32:42;;;;;;;0.32;0.32;;;21.20;44.20;;;;;;6271143;28;20033;-69
2020/12/26 10:35:42;;;;;;;1.02;0.60;;;21.20;44.10;;;;;;6269790;28;20037;-70
2020/12/26 10:38:44;;;;;;;0.88;0.70;;;21.20;44.10;;;;;;6256950;28;20084;-69
2020/12/26 10:41:44;;;;;;;0.50;0.50;;;21.20;44.20;;;;;;6245710;28;20025;-69
2020/12/26 10:44:45;;;;;;;0.50;0.50;;;21.20;44.30;;;;;;6244177;28;20025;-68
2020/12/26 10:47:45;;;;;;;0.73;0.50;;;21.20;44.30;;;;;;6269250;28;20029;-69
2020/12/26 10:50:46;;;;;;;0.88;0.50;;;21.20;44.20;;;;;;6268862;28;20064;-68
2020/12/26 10:53:46;;;;;;;0.57;0.40;;;21.20;44.30;;;;;;6258175;28;20029;-69
2020/12/26 10:56:48;;;;;;;0.60;0.45;;;21.20;44.40;;;;;;6269839;28;20087;-69
2020/12/26 10:59:48;;;;;;;1.85;0.52;;;21.20;44.30;;;;;;6269016;28;20515;-69
2020/12/26 11:02:49;;;;;;;1.30;0.60;;;21.20;45.00;;;;;;6262682;28;20084;-69
2020/12/26 11:05:49;;;;;;;0.85;0.50;;;21.20;44.30;;;;;;6260991;28;20017;-69
2020/12/26 11:08:50;;;;;;;0.60;0.40;;;21.20;44.40;;;;;;6256608;28;20032;-68
2020/12/26 11:11:52;;;;;;;1.02;0.50;;;21.20;44.20;;;;;;6269442;28;20429;-69
2020/12/26 11:14:53;;;;;;;0.68;0.40;;;21.20;44.30;;;;;;6269161;28;20107;-69
2020/12/26 11:17:53;;;;;;;1.20;0.63;;;21.10;44.30;;;;;;6268006;28;20051;-69
2020/12/26 11:20:53;;;;;;;0.40;0.40;;;21.20;44.50;;;;;;6244560;28;20034;-70
2020/12/26 11:23:54;;;;;;;0.47;0.47;;;21.20;44.40;;;;;;6245304;28;20088;-69
2020/12/26 11:26:54;;;;;;;1.00;0.63;;;21.20;44.30;;;;;;6245330;28;20034;-69
2020/12/26 11:29:56;;;;;;;0.70;0.60;;;21.20;44.20;;;;;;6254918;28;20036;-69
2020/12/26 11:32:56;;;;;;;0.40;0.40;;;21.20;44.20;;;;;;6260016;28;20536;-68
2020/12/26 11:35:57;;;;;;;1.42;0.60;;;21.20;44.40;;;;;;6245036;28;20043;-69
2020/12/26 11:38:58;;;;;;;0.95;0.55;;;21.20;44.30;;;;;;6244553;28;20030;-69
2020/12/26 11:41:58;;;;;;;0.70;0.40;;;21.20;44.30;;;;;;6244468;28;20018;-69
2020/12/26 11:44:59;;;;;;;0.38;0.38;;;21.20;44.50;;;;;;6243447;28;20476;-69
2020/12/26 11:47:59;;;;;;;0.57;0.45;;;21.20;44.40;;;;;;6244985;28;20497;-69
2020/12/26 11:51:00;;;;;;;0.73;0.50;;;21.20;44.20;;;;;;6266189;28;20400;-69
2020/12/26 11:54:00;;;;;;;0.90;0.45;;;21.20;44.30;;;;;;6269120;28;20075;-69
2020/12/26 11:57:01;;;;;;;0.28;0.28;;;21.20;44.20;;;;;;6259948;28;20435;-69
2020/12/26 12:00:01;;;;;;;0.43;0.43;;;21.20;44.20;;;;;;6258455;28;20411;-69
2020/12/26 12:03:02;;;;;;;0.82;0.50;;;21.20;44.20;;;;;;6268592;28;20052;-69
2020/12/26 12:06:03;;;;;;;0.80;0.40;;;21.20;44.30;;;;;;6269045;28;20025;-69
2020/12/26 12:09:04;;;;;;;0.65;0.43;;;21.20;44.10;;;;;;6264070;28;20037;-69
2020/12/26 12:12:05;;;;;;;0.40;0.30;;;21.20;44.80;;;;;;6242681;28;20108;-70
2020/12/26 12:15:05;;;;;;;0.85;0.45;;;21.20;44.30;;;;;;6244018;28;20031;-69
2020/12/26 12:18:07;;;;;;;0.50;0.50;;;21.20;44.10;;;;;;6243774;28;20025;-69
2020/12/26 12:21:07;;;;;;;0.35;0.35;;;21.20;44.20;;;;;;6264341;28;20036;-69
2020/12/26 12:24:08;;;;;;;0.70;0.47;;;21.10;44.10;;;;;;6265907;28;20025;-69
2020/12/26 12:27:08;;;;;;;0.55;0.52;;;21.10;44.10;;;;;;6268679;28;20036;-69
2020/12/26 12:30:09;;;;;;;1.55;0.55;;;21.10;44.10;;;;;;6263414;28;20025;-69
2020/12/26 12:33:09;;;;;;;0.80;0.47;;;21.10;44.10;;;;;;6266946;28;20049;-69
2020/12/26 12:36:11;;;;;;;0.75;0.55;;;21.10;44.10;;;;;;6268202;28;20021;-69
2020/12/26 12:39:12;;;;;;;0.63;0.47;;;21.10;44.40;;;;;;6246198;28;20025;-69
2020/12/26 12:42:12;;;;;;;0.57;0.40;;;21.10;44.20;;;;;;6268656;28;20082;-68
2020/12/26 12:45:13;;;;;;;0.50;0.40;;;21.10;44.30;;;;;;6266559;28;20017;-68
2020/12/26 12:48:14;;;;;;;0.55;0.40;;;21.10;44.10;;;;;;6268420;28;20052;-69
2020/12/26 12:51:14;;;;;;;0.80;0.43;;;21.10;44.10;;;;;;6250506;28;20025;-69
2020/12/26 12:54:17;;;;;;;0.95;0.50;;;21.10;44.00;;;;;;6243482;28;20048;-68
2020/12/26 12:57:17;;;;;;;0.80;0.40;;;21.10;43.90;;;;;;6243215;28;20029;-69
2020/12/26 13:00:17;;;;;;;1.13;0.70;;;21.10;44.20;;;;;;6249308;28;20032;-69
2020/12/26 13:03:18;;;;;;;0.90;0.45;;;21.10;44.00;;;;;;6268286;28;20021;-69
2020/12/26 13:06:19;;;;;;;0.80;0.50;;;21.10;43.90;;;;;;6260603;28;20017;-69
2020/12/26 13:09:20;;;;;;;2.08;0.50;;;21.00;43.90;;;;;;6266562;28;20028;-69
2020/12/26 13:12:20;;;;;;;7.78;1.20;;;21.10;44.00;;;;;;6247969;28;20484;-68
2020/12/26 13:15:21;;;;;;;8.35;1.75;;;20.90;43.40;;;;;;6245725;28;20036;-68
2020/12/26 13:18:21;;;;;;;10.00;1.40;;;20.80;42.90;;;;;;6247148;28;20037;-71
2020/12/26 13:21:23;;;;;;;4.43;1.10;;;21.00;43.20;;;;;;6253941;28;20057;-73
2020/12/26 13:24:24;;;;;;;3.70;0.88;;;21.00;43.10;;;;;;6253487;28;20017;-70
2020/12/26 13:27:24;;;;;;;3.25;0.82;;;21.10;44.60;;;;;;6264872;28;20091;-68
2020/12/26 13:30:25;;;;;;;3.65;1.10;;;21.10;44.90;;;;;;6247628;28;20373;-67
2020/12/26 13:33:25;;;;;;;6.45;0.75;;;21.10;44.40;;;;;;6247576;28;20382;-68
2020/12/26 13:36:26;;;;;;;0.80;0.55;;;21.10;44.60;;;;;;6267641;28;20041;-70
2020/12/26 13:39:26;;;;;;;4.85;0.85;;;21.10;44.60;;;;;;6246241;28;20029;-67
2020/12/26 13:42:27;;;;;;;5.22;0.98;;;21.10;44.30;;;;;;6251970;28;20488;-66
2020/12/26 13:45:27;;;;;;;31.63;2.30;;;21.20;45.60;;;;;;6250346;28;20459;-67
2020/12/26 13:48:28;;;;;;;10.63;0.90;;;21.30;45.60;;;;;;6250463;28;20032;-69
2020/12/26 13:51:28;;;;;;;21.13;2.10;;;21.30;44.90;;;;;;6256247;28;20056;-66
2020/12/26 13:54:30;;;;;;;18.38;1.50;;;21.30;45.30;;;;;;6254497;28;20034;-67
2020/12/26 13:57:30;;;;;;;8.63;0.90;;;21.30;45.30;;;;;;6254651;28;20681;-68
2020/12/26 14:00:31;;;;;;;9.57;1.35;;;21.30;45.30;;;;;;6252290;28;20026;-67
2020/12/26 14:03:31;;;;;;;3.47;0.98;;;21.20;44.90;;;;;;6254364;28;20029;-67
2020/12/26 14:06:32;;;;;;;5.85;1.15;;;21.30;45.20;;;;;;6249226;28;20037;-67
2020/12/26 14:09:33;;;;;;;6.57;0.98;;;21.30;45.10;;;;;;6253246;28;20029;-68
2020/12/26 14:12:33;;;;;;;3.58;0.88;;;21.30;44.70;;;;;;6245001;28;20132;-69
2020/12/26 14:15:34;;;;;;;6.22;1.13;;;21.30;45.40;;;;;;6249479;28;20499;-69
2020/12/26 14:18:35;;;;;;;6.18;1.05;;;21.20;45.30;;;;;;6246097;28;20673;-70
2020/12/26 14:21:35;;;;;;;3.22;0.95;;;21.20;45.10;;;;;;6244041;28;20030;-67
2020/12/26 14:24:36;;;;;;;2.90;0.80;;;21.20;45.50;;;;;;6243866;28;20023;-67
2020/12/26 14:27:36;;;;;;;2.83;0.63;;;21.30;45.70;;;;;;6245418;28;20110;-67
2020/12/26 14:30:37;;;;;;;5.95;0.70;;;21.30;45.60;;;;;;6244153;28;20041;-68
2020/12/26 14:33:37;;;;;;;1.15;0.70;;;21.30;45.40;;;;;;6246278;28;20053;-67
2020/12/26 14:36:38;;;;;;;2.05;0.70;;;21.30;45.70;;;;;;6252251;28;20087;-67
2020/12/26 14:39:39;;;;;;;6.00;1.27;;;21.30;46.00;;;;;;6264709;28;20033;-68
2020/12/26 14:42:40;;;;;;;6.85;0.98;;;21.20;45.70;;;;;;6267646;28;20034;-70
2020/12/26 14:45:40;;;;;;;18.17;3.53;;;21.20;44.70;;;;;;6244758;28;20088;-69
2020/12/26 14:48:41;;;;;;;45.17;6.00;;;21.30;45.50;;;;;;6254062;28;20028;-68
2020/12/26 14:51:41;;;;;;;29.38;4.55;;;21.30;46.20;;;;;;6248933;28;20403;-67
2020/12/26 14:54:42;;;;;;;58.88;6.75;;;21.30;45.90;;;;;;6255470;28;20025;-68
2020/12/26 14:57:43;;;;;;;36.78;6.32;;;21.30;46.00;;;;;;6246448;28;20032;-68
2020/12/26 15:00:43;;;;;;;58.60;8.13;;;21.30;45.60;;;;;;6268281;28;20033;-67
2020/12/26 15:03:44;;;;;;;75.60;9.07;;;21.30;46.10;;;;;;6268734;28;20531;-68
2020/12/26 15:06:45;;;;;;;70.72;9.18;;;21.30;45.60;;;;;;6267358;28;20100;-68
2020/12/26 15:09:45;;;;;;;63.70;9.45;;;21.20;45.70;;;;;;6246332;28;20084;-67
2020/12/26 15:12:46;;;;;;;47.05;7.20;;;21.30;45.50;;;;;;6268335;28;20037;-68
2020/12/26 15:15:46;;;;;;;36.08;5.80;;;21.30;45.50;;;;;;6268247;28;20033;-68
2020/12/26 15:18:47;;;;;;;29.42;4.70;;;21.30;45.10;;;;;;6262516;28;20037;-67
2020/12/26 15:21:47;;;;;;;30.60;4.65;;;21.30;45.20;;;;;;6244885;28;20096;-65
2020/12/26 15:24:48;;;;;;;33.63;4.95;;;21.30;44.80;;;;;;6258753;28;20024;-66
2020/12/26 15:27:48;;;;;;;38.90;5.85;;;21.20;45.20;;;;;;6245961;28;20026;-66
2020/12/26 15:30:49;;;;;;;22.83;4.63;;;21.20;45.10;;;;;;6248956;28;20033;-65
2020/12/26 15:33:51;;;;;;;29.60;5.80;;;21.30;45.20;;;;;;6241977;28;20144;-65
2020/12/26 15:36:51;;;;;;;36.00;5.80;;;21.30;45.50;;;;;;6249244;28;20048;-67
2020/12/26 15:39:52;;;;;;;29.23;5.82;;;21.30;45.40;;;;;;6241894;28;20030;-66
2020/12/26 15:42:52;;;;;;;44.83;5.55;;;21.30;45.30;;;;;;6243578;28;20495;-66